Aérodrome :
LOGIN :

S'inscrire | Disclaimer

   EN    FR    IT 

 










Légende :    VFR   VFR Marginal   IFR   IFR Intensif   IFR Très Intensif
Visi : 
Plafond : 
>= 8 km
>= 3000ft
5 à 8 km
1000 à 3000 ft
1500m à 5 km
500 à 1000 ft
800 à 1500m
200 à 500 ft
< 800m
< 200 ft
Symboles :   Orages  Brouillard  Fortes neiges  Fortes précipitations  Vent > 20 kt
SIGMETs :   Divers  Orages  Givrage  Turbulence  Onde Orograph.  Cendres Volcan.






- Altitude de l'aérodrome : 238 ft
- Code IATA : FAB


EGLF - Farnborough

DERNIER METAR :
  • 281750Z AUTO 24011KT 9999 NCD 03/01 Q0999

METARs EXPIRÉS :
  • 281720Z AUTO 24012KT 9999 NCD 04/01 Q0999
  • 281650Z 25014KT 9999 VCSH FEW020 04/01 Q0998
  • 281620Z 25013KT 9999 VCSH FEW020 04/01 Q0998
  • 281550Z AUTO 25017KT 9999 FEW020/// 05/01 Q0997
  • 281520Z AUTO 24017KT 9999 FEW024/// 05/01 Q0997
  • 281450Z AUTO 25011KT 9999 SCT029/// SCT034/// 05/01 Q0997

TAF TAF EGLF
Valide du 28 à 18h jusqu'au 28 à 23h UTC


281656Z 2818/2823 26010KT 9999 SCT025
ATIS : +44 09063 800 400 (*282)



MET'MAP, la Météo Aéronautique d'un coup d'oeil ! - Copyright ORBIFLY Décembre 2007 - Disclaimer

ORBIFLY MET'MAP TEAM :

Programmation & Développement : Alexandra Zaïnal
Sur une idée originale de : Baudouin d'Aumeries
Assistance à la programmation : Marc-Olivier Méhu
Soutien technique & logistique : Manuel Goepfert

Contact : metmap@orbifly.com




SOURCES & CREDITS :

   NOAA